createdAt,value
2022-09-15T00:01:21.859Z,98429.81
2022-09-15T00:03:50.743Z,98428.75
2022-09-15T00:06:21.500Z,98427.69
2022-09-15T00:08:50.015Z,98430.41
2022-09-15T00:11:20.540Z,98427.69
2022-09-15T00:13:49.451Z,98423.06
2022-09-15T00:16:19.235Z,98426.59
2022-09-15T00:18:48.434Z,98427.41
2022-09-15T00:21:20.470Z,98422.00
2022-09-15T00:23:51.096Z,98417.38
2022-09-15T00:26:21.720Z,98414.69
2022-09-15T00:28:50.436Z,98419.06
2022-09-15T00:31:21.306Z,98417.16
2022-09-15T00:33:50.336Z,98419.88
2022-09-15T00:36:19.494Z,98412.81
2022-09-15T00:38:49.512Z,98416.34
2022-09-15T00:41:21.085Z,98413.38
2022-09-15T00:43:53.111Z,98417.97
2022-09-15T00:46:23.214Z,98422.31
2022-09-15T00:48:56.915Z,98413.38
2022-09-15T00:51:31.720Z,98406.91
2022-09-15T00:54:04.158Z,98413.94
2022-09-15T00:56:35.234Z,98404.19
2022-09-15T00:59:07.034Z,98404.19
2022-09-15T01:01:35.916Z,98413.13
2022-09-15T01:04:04.740Z,98406.91
2022-09-15T01:06:37.308Z,98410.41
2022-09-15T01:09:19.398Z,98407.72
2022-09-15T01:11:47.919Z,98404.19
2022-09-15T01:14:16.679Z,98407.44
2022-09-15T01:17:10.035Z,98408.53
2022-09-15T01:20:11.663Z,98402.28
2022-09-15T01:22:54.083Z,98406.06
2022-09-15T01:25:41.593Z,98401.47
2022-09-15T01:28:26.422Z,98399.81
2022-09-15T01:31:02.173Z,98397.09
2022-09-15T01:33:38.811Z,98399.81
2022-09-15T01:36:14.317Z,98399.81
2022-09-15T01:38:52.375Z,98401.47
2022-09-15T01:41:26.083Z,98399.81
2022-09-15T01:44:00.614Z,98400.41
2022-09-15T01:46:36.476Z,98401.47
2022-09-15T01:49:08.724Z,98395.22
2022-09-15T01:51:40.750Z,98397.91
2022-09-15T01:54:10.229Z,98397.91
2022-09-15T01:56:41.816Z,98397.09
2022-09-15T01:59:10.541Z,98395.22
2022-09-15T02:01:45.402Z,98400.63
2022-09-15T02:04:19.457Z,98397.09
2022-09-15T02:06:54.489Z,98407.13
2022-09-15T02:09:26.675Z,98409.03
2022-09-15T02:12:03.576Z,98405.50
2022-09-15T02:14:44.160Z,98395.47
2022-09-15T02:17:19.104Z,98398.41
2022-09-15T02:19:51.216Z,98400.31
2022-09-15T02:22:24.486Z,98399.28
2022-09-15T02:24:59.108Z,98400.31
2022-09-15T02:27:33.016Z,98397.59
2022-09-15T02:30:06.158Z,98394.91
2022-09-15T02:32:38.494Z,98398.41
2022-09-15T02:35:10.194Z,98396.56
2022-09-15T02:37:39.671Z,98395.47
2022-09-15T02:40:09.472Z,98398.19
2022-09-15T02:42:39.300Z,98399.00
2022-09-15T02:45:08.859Z,98393.59
2022-09-15T02:47:38.677Z,98405.81
2022-09-15T02:50:08.345Z,98395.22
2022-09-15T02:52:36.884Z,98403.34
2022-09-15T02:55:05.921Z,98396.88
2022-09-15T02:57:34.386Z,98396.06
2022-09-15T03:00:16.093Z,98407.72
2022-09-15T03:02:48.412Z,98407.72
2022-09-15T03:05:18.443Z,98404.19
2022-09-15T03:07:46.831Z,98408.53
2022-09-15T03:10:16.259Z,98402.28
2022-09-15T03:12:46.365Z,98402.28
2022-09-15T03:15:17.683Z,98409.34
2022-09-15T03:17:48.568Z,98404.72
2022-09-15T03:20:18.922Z,98407.72
2022-09-15T03:22:47.304Z,98409.34
2022-09-15T03:25:15.937Z,98408.53
2022-09-15T03:27:44.328Z,98402.03
2022-09-15T03:30:13.840Z,98402.84
2022-09-15T03:32:42.496Z,98401.22
2022-09-15T03:35:12.363Z,98406.63
2022-09-15T03:37:40.954Z,98402.84
2022-09-15T03:40:11.420Z,98410.16
2022-09-15T03:42:39.870Z,98400.94
2022-09-15T03:45:09.197Z,98402.03
2022-09-15T03:47:37.534Z,98406.63
2022-09-15T03:50:06.935Z,98401.22
2022-09-15T03:52:36.745Z,98402.28
2022-09-15T03:55:05.525Z,98399.56
2022-09-15T03:57:34.016Z,98396.88
2022-09-15T04:00:02.391Z,98398.19
2022-09-15T04:02:33.234Z,98391.06
2022-09-15T04:05:02.376Z,98403.78
2022-09-15T04:07:32.147Z,98398.06
2022-09-15T04:10:02.575Z,98402.09
2022-09-15T04:12:32.612Z,98399.84
2022-09-15T04:15:03.136Z,98400.94
2022-09-15T04:17:32.545Z,98412.53
2022-09-15T04:20:01.092Z,98404.91
2022-09-15T04:22:32.116Z,98407.03
2022-09-15T04:25:01.910Z,98411.59
2022-09-15T04:27:34.594Z,98417.00
2022-09-15T04:30:03.415Z,98414.41
2022-09-15T04:32:33.023Z,98413.25
2022-09-15T04:35:01.381Z,98414.31
2022-09-15T04:37:31.707Z,98412.13
2022-09-15T04:40:02.257Z,98415.09
2022-09-15T04:42:32.299Z,98415.59
2022-09-15T04:45:00.718Z,98412.28
2022-09-15T04:47:29.545Z,98414.19
2022-09-15T04:49:57.903Z,98414.69
2022-09-15T04:52:26.542Z,98412.22
2022-09-15T04:54:54.935Z,98414.34
2022-09-15T04:57:24.786Z,98410.00
2022-09-15T04:59:53.115Z,98410.00
2022-09-15T05:02:21.563Z,98415.44
2022-09-15T05:04:51.678Z,98417.31
2022-09-15T05:07:20.171Z,98414.63
2022-09-15T05:09:48.601Z,98414.88
2022-09-15T05:12:17.598Z,98413.47
2022-09-15T05:14:47.327Z,98416.41
2022-09-15T05:17:15.848Z,98410.44
2022-09-15T05:19:44.283Z,98421.50
2022-09-15T05:22:12.724Z,98416.63
2022-09-15T05:24:41.096Z,98422.53
2022-09-15T05:27:09.485Z,98419.81
2022-09-15T05:29:38.499Z,98420.84
2022-09-15T05:32:08.339Z,98413.25
2022-09-15T05:34:36.755Z,98419.50
2022-09-15T05:37:05.533Z,98415.13
2022-09-15T05:39:34.044Z,98419.72
2022-09-15T05:42:02.395Z,98419.16
2022-09-15T05:44:31.688Z,98421.53
2022-09-15T05:47:00.356Z,98425.06
2022-09-15T05:49:30.434Z,98419.88
2022-09-15T05:51:58.958Z,98422.34
2022-09-15T05:54:27.950Z,98430.69
2022-09-15T05:56:56.344Z,98426.38
2022-09-15T05:59:24.946Z,98415.81
2022-09-15T06:01:53.486Z,98431.78
2022-09-15T08:35:00.840Z,98482.97
2022-09-15T08:37:29.441Z,98484.34
2022-09-15T08:39:57.893Z,98482.22
2022-09-15T08:42:29.242Z,98481.13
2022-09-15T08:45:04.192Z,98487.69
2022-09-15T08:47:37.259Z,98481.25
2022-09-15T08:50:15.844Z,98486.72
2022-09-15T08:52:49.424Z,98484.00
2022-09-15T08:55:29.209Z,98488.13
2022-09-15T08:57:57.648Z,98490.25
2022-09-15T09:00:26.300Z,98483.28
2022-09-15T09:03:09.244Z,98497.38
2022-09-15T09:05:51.003Z,98495.00
2022-09-15T09:08:40.806Z,98500.66
2022-09-15T09:11:22.367Z,98501.25
2022-09-15T09:14:01.272Z,98496.63
2022-09-15T09:16:42.456Z,98500.16
2022-09-15T09:19:31.358Z,98502.97
2022-09-15T09:22:08.252Z,98509.75
2022-09-15T09:24:42.263Z,98507.38
2022-09-15T09:27:14.333Z,98505.50
2022-09-15T09:29:49.752Z,98505.75
2022-09-15T09:32:22.086Z,98515.25
2022-09-15T09:35:02.111Z,98514.19
2022-09-15T09:37:34.884Z,98506.38
2022-09-15T09:40:03.811Z,98514.03
2022-09-15T09:42:37.283Z,98512.72
2022-09-15T09:45:07.724Z,98513.28
2022-09-15T09:47:37.640Z,98517.06
2022-09-15T09:50:33.846Z,98521.88
2022-09-15T09:53:19.584Z,98517.81
2022-09-15T09:55:48.109Z,98518.38
2022-09-15T09:58:20.821Z,98522.22
2022-09-15T10:00:50.403Z,98523.78
2022-09-15T10:03:21.415Z,98525.44
2022-09-15T10:06:03.701Z,98528.47
2022-09-15T10:08:34.199Z,98525.50
2022-09-15T10:11:07.032Z,98525.00
2022-09-15T10:13:36.806Z,98524.75
2022-09-15T10:16:07.868Z,98526.16
2022-09-15T10:18:39.128Z,98527.78
2022-09-15T10:21:11.168Z,98535.09
2022-09-15T10:23:41.139Z,98532.97
2022-09-15T10:26:32.232Z,98530.59
2022-09-15T10:29:18.024Z,98536.50
2022-09-15T10:31:47.259Z,98531.63
2022-09-15T10:34:37.483Z,98537.38
2022-09-15T10:37:16.959Z,98540.94
2022-09-15T10:39:54.444Z,98539.09
2022-09-15T10:42:50.487Z,98535.66
2022-09-15T10:45:26.126Z,98543.78
2022-09-15T10:48:39.327Z,98538.69
2022-09-15T10:51:22.896Z,98535.47
2022-09-15T10:54:06.519Z,98538.50
2022-09-15T10:56:42.779Z,98535.47
2022-09-15T10:59:38.692Z,98543.38
2022-09-15T11:02:32.423Z,98553.97
2022-09-15T11:05:20.586Z,98562.41
2022-09-15T11:08:02.987Z,98559.69
2022-09-15T11:10:39.024Z,98563.00
2022-09-15T11:13:18.391Z,98563.53
2022-09-15T11:15:58.859Z,98564.63
2022-09-15T11:18:48.667Z,98560.84
2022-09-15T11:21:24.554Z,98561.91
2022-09-15T11:24:14.477Z,98566.50
2022-09-15T11:26:46.994Z,98565.94
2022-09-15T11:29:24.017Z,98571.13
2022-09-15T11:31:55.346Z,98572.06
2022-09-15T11:34:29.264Z,98577.16
2022-09-15T11:37:04.376Z,98581.00
2022-09-15T11:39:40.140Z,98588.81
2022-09-15T11:42:12.949Z,98590.09
2022-09-15T11:44:46.236Z,98582.56
2022-09-15T11:47:26.042Z,98585.00
2022-09-15T11:49:58.353Z,98585.00
2022-09-15T11:52:41.206Z,98591.56
2022-09-15T11:55:26.266Z,98584.19
2022-09-15T11:58:02.588Z,98587.72
2022-09-15T12:00:32.809Z,98584.53
2022-09-15T12:03:15.039Z,98586.16
2022-09-15T12:05:46.411Z,98588.03
2022-09-15T12:08:23.831Z,98580.50
2022-09-15T12:10:58.160Z,98578.59
2022-09-15T12:13:28.681Z,98569.41
2022-09-15T12:16:04.328Z,98579.16
2022-09-15T12:18:46.892Z,98575.91
2022-09-15T12:21:30.767Z,98575.63
2022-09-15T12:24:07.880Z,98576.22
2022-09-15T12:26:40.793Z,98580.06
2022-09-15T12:29:34.997Z,98574.66
2022-09-15T12:32:23.888Z,98571.63
2022-09-15T12:35:13.386Z,98571.34
2022-09-15T12:37:45.784Z,98577.34
2022-09-15T12:40:37.742Z,98576.03
2022-09-15T12:43:21.511Z,98578.44
2022-09-15T12:46:00.357Z,98571.13
2022-09-15T12:48:34.656Z,98568.72
2022-09-15T12:51:08.754Z,98572.84
2022-09-15T12:53:46.982Z,98575.28
2022-09-15T12:56:26.346Z,98577.25
2022-09-15T12:59:05.933Z,98578.38
2022-09-15T13:01:49.369Z,98580.59
2022-09-15T13:04:57.730Z,98575.75
2022-09-15T13:07:39.395Z,98579.28
2022-09-15T13:10:28.524Z,98581.09
2022-09-15T13:13:07.207Z,98582.44
2022-09-15T13:15:38.365Z,98586.28
2022-09-15T13:18:07.880Z,98591.44
2022-09-15T13:20:42.205Z,98581.19
2022-09-15T13:23:15.225Z,98584.38
2022-09-15T13:25:47.164Z,98593.41
2022-09-15T13:28:17.587Z,98596.94
2022-09-15T13:30:59.706Z,98590.38
2022-09-15T13:39:50.270Z,98605.16
2022-09-15T13:42:31.729Z,98603.78
2022-09-15T13:45:26.344Z,98615.69
2022-09-15T13:48:12.275Z,98608.13
2022-09-15T13:50:46.511Z,98616.00
2022-09-15T13:53:35.129Z,98619.88
2022-09-15T13:56:08.460Z,98619.63
2022-09-15T14:01:26.473Z,98611.50
2022-09-15T14:03:58.482Z,98614.25
2022-09-15T14:06:30.442Z,98613.22
2022-09-15T14:09:05.662Z,98616.75
2022-09-15T14:11:36.596Z,98611.31
2022-09-15T14:14:10.852Z,98615.91
2022-09-15T14:16:41.085Z,98621.66
2022-09-15T14:19:33.804Z,98626.31
2022-09-15T14:22:03.648Z,98632.81
2022-09-15T14:24:34.129Z,98633.16
2022-09-15T14:27:10.210Z,98631.00
2022-09-15T14:29:42.863Z,98631.81
2022-09-15T14:32:15.723Z,98627.22
2022-09-15T14:34:45.852Z,98626.38
2022-09-15T14:37:21.582Z,98624.25
2022-09-15T14:39:56.704Z,98623.16
2022-09-15T14:42:30.790Z,98631.06
2022-09-15T14:48:03.497Z,98636.19
2022-09-15T14:50:33.690Z,98634.84
2022-09-15T14:53:05.544Z,98632.38
2022-09-15T14:55:38.750Z,98632.97
2022-09-15T14:58:13.965Z,98628.84
2022-09-15T15:00:51.707Z,98625.88
2022-09-15T15:03:28.144Z,98634.03
2022-09-15T15:06:02.928Z,98633.78
2022-09-15T15:08:42.201Z,98631.63
2022-09-15T15:11:16.824Z,98630.56
2022-09-15T15:13:48.427Z,98633.28
2022-09-15T15:16:23.274Z,98631.91
2022-09-15T15:18:52.222Z,98637.56
2022-09-15T15:21:38.450Z,98637.56
2022-09-15T15:24:18.531Z,98638.94
2022-09-15T15:26:50.295Z,98631.63
2022-09-15T15:29:43.212Z,98634.09
2022-09-15T15:32:17.599Z,98630.56
2022-09-15T15:34:51.015Z,98630.81
2022-09-15T15:37:28.196Z,98636.50
2022-09-15T15:39:58.319Z,98639.22
2022-09-15T15:42:29.794Z,98640.03
2022-09-15T15:45:03.475Z,98645.69
2022-09-15T15:47:36.479Z,98633.97
2022-09-15T15:50:13.623Z,98632.06
2022-09-15T15:52:43.827Z,98628.78
2022-09-15T15:55:16.096Z,98639.28
2022-09-15T15:57:47.889Z,98634.47
2022-09-15T16:00:22.394Z,98625.75
2022-09-15T16:02:51.886Z,98637.44
2022-09-15T16:05:22.211Z,98628.44
2022-09-15T16:07:53.080Z,98628.97
2022-09-15T16:10:24.221Z,98624.59
2022-09-15T16:12:54.212Z,98630.03
2022-09-15T16:15:23.007Z,98630.28
2022-09-15T16:17:51.860Z,98634.09
2022-09-15T16:20:20.907Z,98619.94
2022-09-15T16:22:49.415Z,98629.97
2022-09-15T16:25:22.846Z,98625.63
2022-09-15T16:27:51.252Z,98620.69
2022-09-15T16:30:21.028Z,98628.03
2022-09-15T16:32:49.432Z,98629.88
2022-09-15T16:35:26.109Z,98630.72
2022-09-15T16:37:54.564Z,98631.72
2022-09-15T16:40:22.973Z,98619.72
2022-09-15T16:42:51.443Z,98624.56
2022-09-15T16:45:25.953Z,98630.81
2022-09-15T16:47:54.365Z,98629.94
2022-09-15T16:50:22.764Z,98628.75
2022-09-15T16:52:51.795Z,98630.31
2022-09-15T16:55:31.400Z,98628.38
2022-09-15T16:58:01.139Z,98635.81
2022-09-15T17:00:32.875Z,98641.97
2022-09-15T17:03:01.546Z,98643.28
2022-09-15T17:05:33.897Z,98651.06
2022-09-15T17:08:03.107Z,98655.09
2022-09-15T17:10:31.633Z,98649.34
2022-09-15T17:13:00.338Z,98657.72
2022-09-15T17:15:31.954Z,98656.09
2022-09-15T17:18:00.335Z,98658.69
2022-09-15T17:20:29.035Z,98656.47
2022-09-15T17:22:57.955Z,98651.88
2022-09-15T17:25:29.399Z,98660.84
2022-09-15T17:27:58.792Z,98652.13
2022-09-15T17:30:31.636Z,98662.13
2022-09-15T17:33:04.649Z,98656.94
2022-09-15T17:35:35.274Z,98649.69
2022-09-15T17:38:04.263Z,98664.50
2022-09-15T17:40:33.788Z,98658.50
2022-09-15T17:43:02.570Z,98657.69
2022-09-15T17:45:35.763Z,98654.16
2022-09-15T17:48:05.560Z,98648.50
2022-09-15T17:50:35.896Z,98648.75
2022-09-15T17:53:04.451Z,98643.81
2022-09-15T17:55:34.384Z,98635.47
2022-09-15T17:58:03.925Z,98640.88
2022-09-15T18:00:35.938Z,98635.69
2022-09-15T18:03:17.174Z,98634.28
2022-09-15T18:05:45.840Z,98634.53
2022-09-15T18:08:14.500Z,98633.72
2022-09-15T18:10:42.912Z,98630.69
2022-09-15T18:13:15.013Z,98630.34
2022-09-15T18:15:45.053Z,98629.75
2022-09-15T18:18:15.167Z,98630.50
2022-09-15T18:20:44.202Z,98634.50
2022-09-15T18:23:17.621Z,98632.53
2022-09-15T18:25:47.086Z,98635.50
2022-09-15T18:28:16.388Z,98632.53
2022-09-15T18:30:48.772Z,98639.59
2022-09-15T18:33:19.920Z,98633.59
2022-09-15T18:35:49.430Z,98631.94
2022-09-15T18:38:18.859Z,98640.06
2022-09-15T18:40:50.818Z,98638.69
2022-09-15T18:43:19.288Z,98637.88
2022-09-15T18:45:50.488Z,98631.88
2022-09-15T18:48:19.680Z,98636.69
2022-09-15T18:50:48.225Z,98635.88
2022-09-15T18:53:16.739Z,98636.59
2022-09-15T18:55:45.247Z,98625.78
2022-09-15T18:58:14.069Z,98636.25
2022-09-15T19:00:42.723Z,98628.97
2022-09-15T19:03:14.300Z,98631.09
2022-09-15T19:05:43.067Z,98632.16
2022-09-15T19:08:11.599Z,98628.41
2022-09-15T19:10:43.142Z,98632.41
2022-09-15T19:13:14.295Z,98635.59
2022-09-15T19:15:44.030Z,98639.34
2022-09-15T19:18:14.106Z,98636.31
2022-09-15T19:20:42.576Z,98630.31
2022-09-15T19:23:11.281Z,98630.31
2022-09-15T19:25:42.792Z,98632.41
2022-09-15T19:28:11.554Z,98632.31
2022-09-15T19:30:40.238Z,98634.44
2022-09-15T19:33:08.650Z,98634.09
2022-09-15T19:35:42.899Z,98629.75
2022-09-15T19:38:11.368Z,98625.56
2022-09-15T19:40:39.966Z,98627.44
2022-09-15T19:43:08.383Z,98627.91
2022-09-15T19:45:36.702Z,98618.16
2022-09-15T19:48:05.389Z,98618.59
2022-09-15T19:50:33.879Z,98628.25
2022-09-15T19:53:03.730Z,98620.16
2022-09-15T19:55:34.459Z,98623.06
2022-09-15T19:58:02.924Z,98620.38
2022-09-15T20:00:31.613Z,98621.44
2022-09-15T20:03:00.291Z,98621.56
2022-09-15T20:05:28.670Z,98627.69
2022-09-15T20:07:59.181Z,98612.75
2022-09-15T20:10:28.947Z,98625.94
2022-09-15T20:12:57.330Z,98629.09
2022-09-15T20:15:25.743Z,98622.31
2022-09-15T20:17:54.309Z,98625.00
2022-09-15T20:20:22.615Z,98630.41
2022-09-15T20:22:51.195Z,98626.06
2022-09-15T20:25:20.092Z,98629.47
2022-09-15T20:27:50.005Z,98621.25
2022-09-15T20:30:21.793Z,98631.00
2022-09-15T20:32:50.420Z,98627.03
2022-09-15T20:35:18.944Z,98625.94
2022-09-15T20:37:47.508Z,98619.47
2022-09-15T20:40:16.293Z,98624.66
2022-09-15T20:42:44.925Z,98628.19
2022-09-15T20:45:15.583Z,98624.31
2022-09-15T20:47:44.027Z,98623.72
2022-09-15T20:50:12.536Z,98626.41
2022-09-15T20:52:41.048Z,98620.41
2022-09-15T20:55:10.474Z,98616.91
2022-09-15T20:57:39.481Z,98615.00
2022-09-15T21:00:10.209Z,98613.38
2022-09-15T21:02:40.278Z,98606.44
2022-09-15T21:05:09.515Z,98615.63
2022-09-15T21:07:38.090Z,98608.31
2022-09-15T21:10:08.223Z,98615.00
2022-09-15T21:12:36.703Z,98623.28
2022-09-15T21:15:05.869Z,98617.16
2022-09-15T21:17:34.442Z,98615.59
2022-09-15T21:20:04.869Z,98616.22
2022-09-15T21:22:33.336Z,98614.78
2022-09-15T21:25:01.769Z,98610.22
2022-09-15T21:27:32.125Z,98610.69
2022-09-15T21:30:00.680Z,98612.81
2022-09-15T21:32:29.934Z,98611.16
2022-09-15T21:34:58.401Z,98613.03
2022-09-15T21:37:28.776Z,98605.16
2022-09-15T21:39:57.358Z,98604.00
2022-09-15T21:42:26.184Z,98607.16
2022-09-15T21:44:54.788Z,98601.88
2022-09-15T21:47:23.409Z,98606.69
2022-09-15T21:49:52.611Z,98610.22
2022-09-15T21:52:21.615Z,98602.34
2022-09-15T21:54:52.138Z,98595.91
2022-09-15T21:57:20.813Z,98603.16
2022-09-15T21:59:49.221Z,98597.19
2022-09-15T22:02:19.620Z,98593.06
2022-09-15T22:04:48.454Z,98595.19
2022-09-15T22:07:19.773Z,98598.69
2022-09-15T22:09:48.456Z,98595.75
2022-09-15T22:12:18.435Z,98596.81
2022-09-15T22:14:46.949Z,98596.00
2022-09-15T22:17:15.956Z,98598.25
2022-09-15T22:19:44.567Z,98593.88
2022-09-15T22:22:13.118Z,98593.06
2022-09-15T22:24:41.696Z,98591.78
2022-09-15T22:27:10.214Z,98588.25
2022-09-15T22:29:40.078Z,98590.34
2022-09-15T22:32:08.658Z,98585.22
2022-09-15T22:34:37.107Z,98581.09
2022-09-15T22:37:05.558Z,98580.28
2022-09-15T22:39:57.508Z,98578.38
2022-09-15T22:42:22.694Z,98576.16
2022-09-15T22:44:52.811Z,98575.94
2022-09-15T22:47:21.541Z,98575.09
2022-09-15T22:49:49.960Z,98572.63
2022-09-15T22:52:18.541Z,98573.44
2022-09-15T22:54:47.256Z,98578.03
2022-09-15T22:57:15.745Z,98581.78
2022-09-15T22:59:44.292Z,98588.00
2022-09-15T23:02:14.248Z,98594.47
2022-09-15T23:04:42.923Z,98577.94
2022-09-15T23:07:11.364Z,98590.81
2022-09-15T23:09:40.344Z,98589.19
2022-09-15T23:12:10.116Z,98577.78
2022-09-15T23:14:38.551Z,98584.00
2022-09-15T23:17:07.135Z,98585.31
2022-09-15T23:19:37.017Z,98585.53
2022-09-15T23:22:05.515Z,98585.31
2022-09-15T23:24:34.751Z,98582.81
2022-09-15T23:27:04.156Z,98582.59
2022-09-15T23:29:32.621Z,98568.75
2022-09-15T23:32:01.288Z,98570.41
2022-09-15T23:34:29.860Z,98568.75
2022-09-15T23:36:59.881Z,98566.41
2022-09-15T23:39:28.579Z,98565.56
2022-09-15T23:41:57.064Z,98565.56
2022-09-15T23:44:25.602Z,98562.66
2022-09-15T23:46:54.294Z,98567.22
2022-09-15T23:49:22.899Z,98560.41
2022-09-15T23:51:51.375Z,98559.34
2022-09-15T23:54:21.295Z,98558.53
2022-09-15T23:56:49.818Z,98559.59
2022-09-15T23:59:18.437Z,98562.75
